Terminal Aerodrome Forecast
Issued by NWS Missoula, MT

Home | Current Version | Previous Version | Text Only | Print | Product List | Glossary On
Versions: 1 2 3 4 5 6 7 8 9 10 11 12 13 14
833
FTUS45 KMSO 090520
TAFMSO
TAF
KMSO 090520Z 0906/1006 VRB04KT P6SM BKN050
     FM091000 00000KT 5SM BR FEW001
     FM091900 VRB03KT 6SM HZ SKC=

USA.gov is the U.S. government's official web portal to all federal, state and local government web resources and services.